METAR Data
IDs: Format: Raw Decoded Include TAF

Data at: 2050 UTC 01 Dec 2021

METAR for:KFFT (Frankfort/Capital Ci, KY, US)
Text:KFFT 011953Z AUTO 20013G18KT 10SM FEW046 16/08 A2989 RMK AO2 SLP124 T01560078
Temperature: 15.6°C ( 60°F)
Dewpoint: 7.8°C ( 46°F) [RH = 60%]
Pressure (altimeter):29.89 inches Hg (1012.3 mb) [Sea level pressure: 1012.4 mb]
Winds:from the SSW (200 degrees) at 15 MPH (13 knots; 6.7 m/s) gusting to 21 MPH (18 knots; 9.3 m/s)
Visibility:10 or more sm (16+ km)
Ceiling:at least 12,000 feet AGL
Clouds: few clouds at 4600 feet AGL
QC Flag:automated observation with no human augmentation